Flight Track Log - Related Links

Times and Time Zones

All times are in EST time to prevent confusion due to time zone crossing. See the N30898 flight status page for this flight to view local times or setup timezone preferences in your user account.

Time Position Orientation Groundspeed Altitude Reporting Facility
EST Latitude Longitude Course Direction KTS MPH feet Rate Location/Type
Sat 02:15:51 PM 32.7397 -83.7203 275° West 247 284 4,000  Level Atlanta Center
Sat 02:16:51 PM 32.7419 -83.7697 273° West 196 226 5,200 1,100 Climbing Atlanta Center
Sat 02:17:51 PM 32.7483 -83.8142 280° West 160 184 6,200 900 Climbing Atlanta Center
Sat 02:18:51 PM 32.7506 -83.8683 273° West 155 178 7,000 1,000 Climbing Atlanta Center
Sat 02:19:00 PM 33.0888 -83.9774 320° Northwest  Level Estimated
Sat 02:19:51 PM 32.7525 -83.9228 272° West 160 184 8,200  Level Atlanta Center
Sat 02:20:51 PM 32.7528 -83.9747 270° West 160 184 9,200 1,000 Climbing Atlanta Center
Sat 02:21:51 PM 32.7881 -84.0067 323° Northwest 146 168 10,200 950 Climbing Atlanta Center
Sat 02:22:51 PM 32.8361 -84.0239 343° North 159 183 11,100 950 Climbing Atlanta Center
Sat 02:23:51 PM 32.8842 -84.0439 341° North 169 194 12,100 1,000 Climbing Atlanta Center
Sat 02:24:51 PM 32.9322 -84.0661 339° North 175 201 13,100 950 Climbing Atlanta Center
Sat 02:25:51 PM 32.9822 -84.0833 344° North 180 207 14,000 950 Climbing Atlanta Center
Sat 02:26:51 PM 33.0325 -84.0983 346° North 185 213 15,000 950 Climbing Atlanta Center
Sat 02:27:51 PM 33.0867 -84.1231 339° North 185 213 15,900 850 Climbing Atlanta Center
Sat 02:28:51 PM 33.1347 -84.1528 333° Northwest 185 213 16,700 800 Climbing Atlanta Center
Sat 02:29:51 PM 33.1806 -84.1728 340° North 190 219 17,500 700 Climbing Atlanta Center
Sat 02:30:51 PM 33.2306 -84.2003 335° Northwest 202 232 18,100 700 Climbing Atlanta Center
Sat 02:31:51 PM 33.2828 -84.2278 336° Northwest 202 232 18,900 800 Climbing Atlanta Center
Sat 02:32:51 PM 33.3369 -84.2553 337° Northwest 197 227 19,700 550 Climbing Atlanta Center
Sat 02:33:51 PM 33.3933 -84.2850 336° Northwest 203 234 20,000 150 Climbing Atlanta Center
Sat 02:34:51 PM 33.4517 -84.3203 333° Northwest 224 258 20,000  Level Atlanta Center
Sat 02:35:51 PM 33.5225 -84.3578 336° Northwest 235 270 20,000  Level Atlanta Center
Sat 02:36:51 PM 33.5872 -84.3928 336° Northwest 245 282 20,000  Level Atlanta Center
Sat 02:37:51 PM 33.6475 -84.4256 336° Northwest 245 282 20,000  Level Atlanta Center
Sat 02:38:51 PM 33.7122 -84.4608 336° Northwest 251 289 20,000  Level Atlanta Center
Sat 02:39:51 PM 33.7767 -84.4936 337° Northwest 251 289 20,000  Level Atlanta Center
Sat 02:40:51 PM 33.8414 -84.5342 333° Northwest 257 296 20,000  Level Atlanta Center
Sat 02:41:51 PM 33.9058 -84.5669 337° Northwest 262 302 20,000  Level Atlanta Center
Sat 02:42:51 PM 33.9703 -84.6025 335° Northwest 256 295 20,000  Level Atlanta Center
Sat 02:43:51 PM 34.0350 -84.6406 334° Northwest 256 295 20,000  Level Atlanta Center
Sat 02:44:51 PM 34.0972 -84.6736 336° Northwest 256 295 20,000  Level Atlanta Center
Sat 02:45:51 PM 34.1722 -84.7117 337° Northwest 261 300 20,000  Level Atlanta Center
Sat 02:46:51 PM 34.2369 -84.7447 337° Northwest 252 290 20,000  Level Atlanta Center
Sat 02:47:51 PM 34.3014 -84.7806 335° Northwest 252 290 20,000  Level Atlanta Center
Sat 02:48:51 PM 34.3658 -84.8164 335° Northwest 252 290 20,000  Level Atlanta Center
Sat 02:49:51 PM 34.4303 -84.8547 334° Northwest 257 296 20,000  Level Atlanta Center
Sat 02:50:51 PM 34.4947 -84.8881 337° Northwest 251 289 20,000  Level Atlanta Center
Sat 02:51:51 PM 34.5611 -84.9267 334° Northwest 256 295 20,000  Level Atlanta Center
Sat 02:52:51 PM 34.6236 -84.9625 335° Northwest 256 295 20,000  Level Atlanta Center
Sat 02:53:51 PM 34.6858 -85.0011 333° Northwest 256 295 20,000  Level Atlanta Center
Sat 02:54:51 PM 34.7483 -85.0347 336° Northwest 256 295 20,000  Level Atlanta Center
Sat 02:55:51 PM 34.8125 -85.0711 335° Northwest 251 289 20,000  Level Atlanta Center
Sat 02:56:51 PM 34.8750 -85.1072 335° Northwest 251 289 20,000  Level Atlanta Center
Sat 02:57:51 PM 34.9392 -85.1436 335° Northwest 251 289 20,000 -36 Level Atlanta Center
Sat 02:59:37 PM 35.0264 -85.2342 320° Northwest 238 274 19,900 -393 Descending Memphis Center
Sat 03:00:39 PM 35.0711 -85.2936 313° West 237 273 18,900 -1,016 Descending Memphis Center
Sat 03:01:41 PM 35.1175 -85.3514 314° West 237 273 17,800 -1,113 Descending Memphis Center
Sat 03:02:43 PM 35.1600 -85.4058 314° West 225 259 16,600 -1,113 Descending Memphis Center
Sat 03:03:45 PM 35.2003 -85.4592 313° West 215 247 15,500 -1,016 Descending Memphis Center
Sat 03:04:47 PM 35.2433 -85.5131 314° West 218 251 14,500 -677 Descending Memphis Center
Sat 03:05:49 PM 35.2928 -85.5775 313° West 216 249 14,100 -195 Descending Memphis Center
Sat 03:06:50 PM 35.3347 -85.6308 314° West 216 249 14,100  Level Memphis Center
Sat 03:07:52 PM 35.3758 -85.6844 313° West 215 247 14,100  Level Memphis Center
Sat 03:08:54 PM 35.4161 -85.7378 313° West 213 245 14,100  Level Memphis Center
Sat 03:09:56 PM 35.4569 -85.7897 314° West 212 244 14,100  Level Memphis Center
Sat 03:10:58 PM 35.4978 -85.8419 314° West 211 243 14,100 -677 Level Memphis Center
Sat 03:12:00 PM 35.5375 -85.8942 313° West 210 242 12,700 -1,355 Descending Memphis Center
Sat 03:13:02 PM 35.5767 -85.9439 314° West 205 236 11,300 -1,403 Descending Memphis Center
Sat 03:14:04 PM 35.6181 -86.0003 312° West 201 231 9,800 -1,210 Descending Memphis Center
Sat 03:15:06 PM 35.6567 -86.0503 314° West 200 230 8,800 -829 Descending Memphis Center
Sat 03:16:07 PM 35.6928 -86.0989 312° West 194 223 8,100 -732 Descending Memphis Center
Sat 03:17:09 PM 35.7386 -86.1453 321° Northwest 186 214 7,300 -726 Descending Memphis Center
Sat 03:18:11 PM 35.7892 -86.1742 335° Northwest 195 224 6,600 -677 Descending Memphis Center
Sat 03:19:13 PM 35.8367 -86.2036 333° Northwest 193 222 5,900 -677 Descending Memphis Center
Sat 03:20:15 PM 35.8833 -86.2372 330° Northwest 193 222 5,200 -677 Descending Memphis Center
Sat 03:21:17 PM 35.9294 -86.2689 331° Northwest 189 217 4,500 -629 Descending Memphis Center
Sat 03:22:19 PM 35.9744 -86.3047 327° Northwest 190 219 3,900 -532 Descending Memphis Center
Sat 03:23:21 PM 36.0133 -86.3503 317° Northwest 192 221 3,400 -435 Descending Memphis Center
Sat 03:24:23 PM 36.0425 -86.4014 305° West 184 212 3,000 -532 Descending Memphis Center
Sat 03:25:25 PM 36.0681 -86.4661 296° West 179 206 2,300 -634 Descending Memphis Center
Sat 03:26:26 PM 36.0617 -86.5169 261° West 162 186 1,700 -634 Descending Memphis Center
Sat 03:27:28 PM 36.0300 -86.5186 182° South 127 146 1,000 -435 Descending Memphis Center
Sat 03:28:30 PM 36.0067 -86.5183 179° South 119 137 800 -194 Descending Memphis Center

Login

Don't have an account? Register now (free) for customized features, flight alerts, and more!